Time;durP1;ratioP1;P1;durP2;ratioP2;P2;SDS_P1;SDS_P2;PMS_P1;PMS_P2;Temp;Humidity;BMP_temperature;BMP_pressure;BME280_temperature;BME280_humidity;BME280_pressure;Samples;Min_cycle;Max_cycle;Signal;HPM_P1;HPM_P2
2023/03/02 00:01:50;;;;;;;21.33;10.87;;;9.60;82.80;;;;;;5025368;28;20218;-78
2023/03/02 00:04:22;;;;;;;22.33;10.57;;;9.60;82.20;;;;;;5024732;28;20195;-78
2023/03/02 00:06:52;;;;;;;20.77;10.33;;;9.60;82.10;;;;;;5022098;28;20204;-78
2023/03/02 00:09:21;;;;;;;19.23;9.93;;;9.50;81.20;;;;;;5022138;28;20192;-77
2023/03/02 00:11:50;;;;;;;23.30;11.50;;;9.50;81.40;;;;;;5021323;28;20265;-78
2023/03/02 00:14:20;;;;;;;18.17;10.00;;;9.50;80.80;;;;;;5024423;28;20230;-77
2023/03/02 00:16:48;;;;;;;22.60;10.47;;;9.50;80.90;;;;;;5022055;28;20660;-77
2023/03/02 00:19:17;;;;;;;20.47;9.33;;;9.50;81.10;;;;;;5030486;28;20199;-78
2023/03/02 00:21:45;;;;;;;17.17;9.53;;;9.50;81.00;;;;;;5028626;28;20200;-77
2023/03/02 00:24:14;;;;;;;19.83;10.20;;;9.50;80.70;;;;;;5025019;28;20195;-77
2023/03/02 00:26:43;;;;;;;19.93;8.90;;;9.50;79.50;;;;;;5025610;28;20223;-77
2023/03/02 00:29:11;;;;;;;20.83;10.30;;;9.50;79.30;;;;;;5031702;28;20641;-77
2023/03/02 00:31:41;;;;;;;19.33;10.10;;;9.50;79.60;;;;;;5029792;28;20211;-77
2023/03/02 00:34:09;;;;;;;20.97;9.87;;;9.50;79.60;;;;;;5014014;28;20208;-78
2023/03/02 00:36:38;;;;;;;19.33;10.13;;;9.40;79.20;;;;;;5016249;28;20206;-77
2023/03/02 00:39:07;;;;;;;20.07;9.73;;;9.50;79.00;;;;;;5024878;28;20703;-77
2023/03/02 00:41:35;;;;;;;19.87;9.93;;;9.40;78.50;;;;;;5028069;28;20572;-77
2023/03/02 00:44:04;;;;;;;17.40;10.07;;;9.30;78.00;;;;;;5029965;28;20195;-77
2023/03/02 00:46:32;;;;;;;17.13;9.40;;;9.30;78.00;;;;;;5025632;28;20208;-78
2023/03/02 00:49:02;;;;;;;24.10;10.77;;;9.30;78.30;;;;;;5032182;28;20203;-78
2023/03/02 00:51:33;;;;;;;19.30;9.87;;;9.30;78.30;;;;;;5029532;28;20222;-78
2023/03/02 00:54:02;;;;;;;19.30;9.77;;;9.20;77.70;;;;;;5031036;28;20206;-78
2023/03/02 00:56:31;;;;;;;20.00;10.63;;;9.20;77.90;;;;;;5027938;28;20219;-79
2023/03/02 00:59:05;;;;;;;19.27;9.47;;;9.20;78.10;;;;;;5030898;28;20253;-77
2023/03/02 01:01:33;;;;;;;18.50;9.23;;;9.20;78.00;;;;;;5026757;28;20223;-78
2023/03/02 01:04:03;;;;;;;18.63;9.40;;;9.10;78.00;;;;;;5020800;28;20246;-77
2023/03/02 01:06:31;;;;;;;19.63;9.70;;;9.20;78.10;;;;;;5020418;28;20254;-77
2023/03/02 01:09:00;;;;;;;20.83;10.20;;;9.10;77.80;;;;;;5031535;28;20283;-78
2023/03/02 01:11:29;;;;;;;19.50;9.97;;;9.10;77.80;;;;;;5027339;28;20639;-78
2023/03/02 01:13:57;;;;;;;20.83;10.33;;;9.00;77.60;;;;;;5032657;28;20253;-77
2023/03/02 01:16:25;;;;;;;21.40;10.23;;;9.00;77.80;;;;;;5029364;28;20270;-76
2023/03/02 01:18:54;;;;;;;23.40;9.97;;;9.00;78.00;;;;;;5023275;28;20199;-77
2023/03/02 01:21:23;;;;;;;20.90;10.97;;;9.00;78.30;;;;;;5018838;28;20253;-78
2023/03/02 01:23:52;;;;;;;19.50;9.73;;;9.00;78.30;;;;;;5031324;28;20195;-78
2023/03/02 01:26:20;;;;;;;20.57;10.60;;;9.00;78.20;;;;;;5026207;28;20266;-77
2023/03/02 01:28:54;;;;;;;21.70;10.73;;;9.00;78.00;;;;;;5024506;28;20200;-77
2023/03/02 01:31:22;;;;;;;17.80;10.50;;;9.00;77.90;;;;;;5024972;28;20202;-78
2023/03/02 01:33:51;;;;;;;23.23;11.20;;;9.00;77.70;;;;;;5027928;28;20200;-78
2023/03/02 01:36:20;;;;;;;22.67;11.23;;;9.00;77.80;;;;;;5027812;28;20220;-77
2023/03/02 01:38:50;;;;;;;23.23;11.00;;;9.00;78.00;;;;;;5025353;28;20827;-78
2023/03/02 01:41:18;;;;;;;21.10;10.90;;;9.00;78.90;;;;;;5027444;28;20200;-77
2023/03/02 01:43:46;;;;;;;17.90;10.03;;;9.00;78.00;;;;;;5024854;28;20851;-77
2023/03/02 01:46:18;;;;;;;22.57;11.37;;;9.00;78.00;;;;;;5026968;28;20203;-78
2023/03/02 01:48:48;;;;;;;20.20;10.27;;;8.90;78.00;;;;;;5024750;28;20199;-77
2023/03/02 01:51:21;;;;;;;21.13;9.80;;;9.00;78.10;;;;;;5029633;28;20200;-78
2023/03/02 01:53:55;;;;;;;23.07;10.97;;;8.90;77.90;;;;;;5028806;28;20210;-78
2023/03/02 01:56:29;;;;;;;19.33;10.40;;;8.90;78.00;;;;;;5029556;28;20208;-78
2023/03/02 01:59:02;;;;;;;21.40;11.87;;;8.90;78.20;;;;;;5021971;28;20203;-77
2023/03/02 02:01:32;;;;;;;22.13;10.40;;;8.90;77.70;;;;;;5024298;28;20230;-79
2023/03/02 02:04:00;;;;;;;24.80;12.48;;;8.90;77.50;;;;;;5025371;28;20444;-77
2023/03/02 02:06:34;;;;;;;23.87;11.20;;;8.90;77.60;;;;;;5028887;28;20192;-76
2023/03/02 02:09:07;;;;;;;22.53;10.20;;;8.90;77.60;;;;;;5027097;28;20199;-77
2023/03/02 02:11:35;;;;;;;23.47;11.17;;;8.90;77.30;;;;;;5028256;28;20231;-77
2023/03/02 02:14:04;;;;;;;19.90;10.77;;;8.90;77.20;;;;;;5032524;28;20238;-78
2023/03/02 02:16:34;;;;;;;18.87;10.53;;;8.90;77.00;;;;;;5025998;28;20610;-78
2023/03/02 02:19:04;;;;;;;19.80;10.40;;;8.90;76.90;;;;;;5027308;28;20716;-78
2023/03/02 02:21:32;;;;;;;17.73;9.63;;;8.80;76.20;;;;;;5024374;28;20737;-77
2023/03/02 02:24:09;;;;;;;19.40;9.93;;;8.80;75.40;;;;;;5028513;28;20538;-77
2023/03/02 02:26:43;;;;;;;17.47;9.50;;;8.80;75.40;;;;;;5028846;28;20264;-76
2023/03/02 02:29:17;;;;;;;18.77;8.77;;;8.80;75.60;;;;;;5029156;28;20617;-77
2023/03/02 02:31:48;;;;;;;21.07;10.03;;;8.80;75.80;;;;;;5030114;28;20218;-76
2023/03/02 02:34:22;;;;;;;17.60;9.80;;;8.80;76.00;;;;;;5026526;28;20195;-77
2023/03/02 02:36:54;;;;;;;19.87;9.43;;;8.70;75.00;;;;;;5026336;28;20235;-77
2023/03/02 02:39:28;;;;;;;18.37;9.90;;;8.70;75.20;;;;;;5029885;28;20596;-76
2023/03/02 02:42:02;;;;;;;16.40;8.80;;;8.70;75.20;;;;;;5013567;28;20249;-76
2023/03/02 02:44:32;;;;;;;19.00;9.73;;;8.60;73.80;;;;;;5023124;28;20546;-78
2023/03/02 02:47:00;;;;;;;17.30;8.33;;;8.60;74.50;;;;;;5027576;28;20524;-78
2023/03/02 02:49:34;;;;;;;18.23;8.43;;;8.60;73.90;;;;;;5025933;28;20198;-77
2023/03/02 02:52:04;;;;;;;18.87;8.50;;;8.60;73.30;;;;;;5027851;28;20269;-77
2023/03/02 02:54:34;;;;;;;16.23;8.10;;;8.60;73.20;;;;;;5025666;28;20207;-77
2023/03/02 02:57:04;;;;;;;18.30;8.43;;;8.50;72.90;;;;;;5028699;28;20224;-77
2023/03/02 02:59:36;;;;;;;18.93;8.77;;;8.50;72.30;;;;;;5028033;28;20202;-78
2023/03/02 03:02:05;;;;;;;17.87;8.57;;;8.40;71.30;;;;;;5031522;28;20196;-76
2023/03/02 03:04:34;;;;;;;16.73;7.70;;;8.40;71.80;;;;;;5026136;28;20253;-79
2023/03/02 03:07:05;;;;;;;20.83;8.60;;;8.40;71.40;;;;;;5027225;28;20267;-77
2023/03/02 03:09:33;;;;;;;25.50;8.70;;;8.40;71.00;;;;;;5022650;28;20561;-77
2023/03/02 03:12:08;;;;;;;16.60;8.33;;;8.30;69.80;;;;;;5029738;28;20288;-77
2023/03/02 03:14:39;;;;;;;19.57;8.07;;;8.30;69.80;;;;;;5020694;28;20219;-77
2023/03/02 03:17:10;;;;;;;15.23;8.23;;;8.30;70.00;;;;;;5026341;28;20203;-77
2023/03/02 03:19:41;;;;;;;19.50;8.40;;;8.20;70.00;;;;;;5028210;28;20196;-77
2023/03/02 03:22:11;;;;;;;15.33;8.50;;;8.20;69.80;;;;;;5026914;28;20782;-77
2023/03/02 03:24:41;;;;;;;18.20;8.73;;;8.10;69.90;;;;;;5021808;28;20293;-78
2023/03/02 03:27:13;;;;;;;15.77;8.63;;;8.20;70.50;;;;;;5023389;28;20577;-77
2023/03/02 03:29:45;;;;;;;18.83;8.43;;;8.20;70.50;;;;;;5025877;28;20194;-78
2023/03/02 03:32:14;;;;;;;18.23;8.97;;;8.20;70.60;;;;;;5029749;28;20198;-77
2023/03/02 03:34:43;;;;;;;21.43;9.33;;;8.20;71.10;;;;;;5025764;28;20200;-77
2023/03/02 03:37:13;;;;;;;19.07;9.30;;;8.10;70.70;;;;;;5025325;28;20304;-79
2023/03/02 03:39:42;;;;;;;20.47;10.03;;;8.10;71.20;;;;;;5017430;28;20249;-78
2023/03/02 03:42:12;;;;;;;20.97;10.13;;;8.10;71.60;;;;;;5028154;28;20697;-78
2023/03/02 03:44:40;;;;;;;22.00;10.00;;;8.10;72.10;;;;;;5022260;28;20256;-78
2023/03/02 03:47:08;;;;;;;21.23;10.03;;;8.10;72.20;;;;;;5026733;28;20788;-78
2023/03/02 03:49:37;;;;;;;20.83;10.00;;;8.10;72.10;;;;;;5032152;28;21333;-78
2023/03/02 03:52:05;;;;;;;23.37;11.00;;;8.10;72.40;;;;;;5024746;28;20219;-76
2023/03/02 03:54:34;;;;;;;19.87;10.03;;;8.10;72.70;;;;;;5027539;28;20200;-76
2023/03/02 03:57:02;;;;;;;21.60;10.60;;;8.10;72.80;;;;;;5029386;28;20218;-76
2023/03/02 03:59:34;;;;;;;27.63;11.43;;;8.00;72.90;;;;;;5025843;28;20262;-77
2023/03/02 04:02:03;;;;;;;22.73;10.47;;;8.00;72.90;;;;;;5029375;28;20223;-77
2023/03/02 04:04:33;;;;;;;19.20;10.13;;;8.00;73.10;;;;;;5031731;28;20257;-78
2023/03/02 04:07:02;;;;;;;23.83;10.93;;;8.00;73.30;;;;;;5030464;28;20666;-77
2023/03/02 04:09:36;;;;;;;22.10;11.98;;;8.00;73.60;;;;;;5028891;28;20512;-78
2023/03/02 04:12:06;;;;;;;23.43;11.13;;;8.00;73.80;;;;;;5029549;28;20243;-78
2023/03/02 04:14:36;;;;;;;21.37;11.20;;;7.90;74.20;;;;;;5027391;28;20714;-77
2023/03/02 04:17:05;;;;;;;25.10;10.63;;;7.90;73.90;;;;;;5025678;28;20211;-77
2023/03/02 04:19:34;;;;;;;23.17;10.97;;;7.90;74.00;;;;;;5029043;28;20203;-77
2023/03/02 04:22:03;;;;;;;20.40;10.70;;;7.90;74.10;;;;;;5028990;28;20196;-77
2023/03/02 04:24:32;;;;;;;23.60;11.60;;;7.90;74.10;;;;;;5024380;28;20210;-78
2023/03/02 04:27:00;;;;;;;21.37;10.83;;;7.90;74.00;;;;;;5029107;28;20207;-76
2023/03/02 04:29:31;;;;;;;23.27;11.53;;;7.80;73.80;;;;;;5034334;28;20194;-77
2023/03/02 04:32:01;;;;;;;21.83;11.50;;;7.80;73.90;;;;;;5026216;28;20195;-77
2023/03/02 04:34:29;;;;;;;21.23;10.77;;;7.80;74.00;;;;;;5023387;28;20206;-76
2023/03/02 04:36:57;;;;;;;24.80;11.03;;;7.80;74.10;;;;;;5030446;28;20230;-77
2023/03/02 04:39:26;;;;;;;25.87;11.40;;;7.80;74.20;;;;;;5026812;28;20202;-77
2023/03/02 04:41:55;;;;;;;22.40;11.57;;;7.80;74.10;;;;;;5023313;28;20196;-77
2023/03/02 04:44:23;;;;;;;26.80;10.87;;;7.80;74.00;;;;;;5029553;28;20207;-77
2023/03/02 04:46:52;;;;;;;27.67;11.57;;;7.80;74.40;;;;;;5020581;28;20250;-76
2023/03/02 04:49:22;;;;;;;25.67;11.80;;;7.80;75.00;;;;;;5028873;28;20205;-77
2023/03/02 04:51:50;;;;;;;23.20;11.40;;;7.70;75.00;;;;;;5027558;28;20214;-77
2023/03/02 04:54:21;;;;;;;23.57;11.60;;;7.80;75.20;;;;;;5027503;28;20207;-78
2023/03/02 04:56:50;;;;;;;26.07;12.80;;;7.70;75.00;;;;;;5029793;28;20650;-77
2023/03/02 04:59:21;;;;;;;24.87;12.67;;;7.70;75.00;;;;;;5030216;28;20873;-78
2023/03/02 05:01:49;;;;;;;27.17;13.10;;;7.70;75.00;;;;;;5020626;28;20310;-77
2023/03/02 05:04:18;;;;;;;25.87;12.50;;;7.70;74.90;;;;;;5016852;28;20212;-76
2023/03/02 05:06:48;;;;;;;28.67;12.43;;;7.70;74.90;;;;;;5029479;28;20338;-76
2023/03/02 05:09:17;;;;;;;22.90;11.53;;;7.70;74.70;;;;;;5030110;28;20312;-76
2023/03/02 05:11:45;;;;;;;23.70;11.33;;;7.70;74.50;;;;;;5030101;28;20239;-77
2023/03/02 05:14:14;;;;;;;28.73;12.17;;;7.60;74.50;;;;;;5029349;28;20202;-76
2023/03/02 05:16:42;;;;;;;26.00;11.23;;;7.70;74.70;;;;;;5028349;28;20203;-76
2023/03/02 05:19:12;;;;;;;23.43;11.53;;;7.70;74.50;;;;;;5021079;28;20296;-77
2023/03/02 05:21:41;;;;;;;24.30;11.90;;;7.60;74.10;;;;;;5022390;28;20208;-77
2023/03/02 05:24:11;;;;;;;23.93;11.57;;;7.60;74.30;;;;;;5028926;28;20202;-76
2023/03/02 05:26:41;;;;;;;23.37;11.77;;;7.60;74.30;;;;;;5024260;28;20621;-77
2023/03/02 05:29:09;;;;;;;25.27;12.97;;;7.60;74.30;;;;;;5028572;28;20210;-77
2023/03/02 05:31:40;;;;;;;23.37;12.43;;;7.60;74.60;;;;;;5023821;28;20567;-76
2023/03/02 05:34:12;;;;;;;22.57;10.93;;;7.60;74.60;;;;;;5022136;28;20213;-77
2023/03/02 05:36:40;;;;;;;29.50;11.80;;;7.60;74.70;;;;;;5023010;28;20226;-77
2023/03/02 05:39:11;;;;;;;22.33;11.50;;;7.60;74.90;;;;;;5026138;28;20205;-76
2023/03/02 05:41:40;;;;;;;26.57;12.73;;;7.60;75.00;;;;;;5030292;28;20198;-76
2023/03/02 05:44:10;;;;;;;27.97;12.27;;;7.60;75.00;;;;;;5028222;28;20250;-77
2023/03/02 05:46:39;;;;;;;22.00;10.53;;;7.60;75.00;;;;;;5023043;28;20281;-76
2023/03/02 05:49:09;;;;;;;30.13;11.77;;;7.60;75.00;;;;;;5021291;28;20201;-77
2023/03/02 05:51:37;;;;;;;22.43;11.40;;;7.60;75.20;;;;;;5022956;28;20685;-77
2023/03/02 05:54:06;;;;;;;26.60;12.73;;;7.60;75.30;;;;;;5025066;28;20294;-76
2023/03/02 05:56:35;;;;;;;25.47;11.00;;;7.60;75.20;;;;;;5026206;28;20207;-77
2023/03/02 05:59:04;;;;;;;25.20;12.17;;;7.70;75.20;;;;;;5027263;28;20246;-76
2023/03/02 06:01:32;;;;;;;28.03;13.63;;;7.70;75.00;;;;;;5027527;28;20210;-77
2023/03/02 06:04:01;;;;;;;21.43;11.57;;;7.70;75.00;;;;;;5022604;28;20221;-77
2023/03/02 06:06:30;;;;;;;25.03;12.43;;;7.70;75.00;;;;;;5025806;28;20198;-76
2023/03/02 06:09:01;;;;;;;25.83;11.73;;;7.70;75.20;;;;;;5023491;28;20199;-76
2023/03/02 06:11:29;;;;;;;23.27;11.20;;;7.60;75.00;;;;;;5027337;28;20257;-76
2023/03/02 06:13:59;;;;;;;25.63;12.37;;;7.70;75.10;;;;;;5028482;28;20256;-75
2023/03/02 06:16:27;;;;;;;25.97;12.10;;;7.70;75.00;;;;;;5028345;28;20246;-76
2023/03/02 06:18:56;;;;;;;26.03;12.03;;;7.60;75.30;;;;;;5016068;28;20215;-77
2023/03/02 06:21:24;;;;;;;23.57;11.93;;;7.60;75.20;;;;;;5025234;28;20597;-77
2023/03/02 06:23:53;;;;;;;24.40;10.53;;;7.70;75.40;;;;;;5023065;28;20670;-76
2023/03/02 06:26:22;;;;;;;28.80;12.77;;;7.70;75.50;;;;;;5023528;28;20278;-75
2023/03/02 06:28:53;;;;;;;24.43;11.97;;;7.70;75.50;;;;;;5023078;28;20199;-76
2023/03/02 06:31:23;;;;;;;21.27;11.70;;;7.70;75.50;;;;;;5020813;28;20204;-76
2023/03/02 06:33:52;;;;;;;26.80;11.23;;;7.70;75.60;;;;;;5025043;28;20612;-76
2023/03/02 06:36:20;;;;;;;23.77;11.80;;;7.70;75.80;;;;;;5026996;28;20230;-77
2023/03/02 06:38:48;;;;;;;24.80;12.23;;;7.80;75.80;;;;;;5022957;28;20504;-77
2023/03/02 06:41:17;;;;;;;33.20;12.73;;;7.80;75.80;;;;;;5026991;28;20215;-77
2023/03/02 06:43:46;;;;;;;21.97;11.17;;;7.90;75.80;;;;;;5027142;28;20234;-78
2023/03/02 06:46:14;;;;;;;23.30;10.80;;;7.90;75.60;;;;;;5028565;28;20587;-77
2023/03/02 06:48:44;;;;;;;25.40;12.30;;;8.00;75.60;;;;;;5027889;28;20198;-75
2023/03/02 06:51:12;;;;;;;26.67;12.03;;;8.00;75.30;;;;;;5021703;28;22508;-78
2023/03/02 06:53:40;;;;;;;27.77;13.00;;;8.00;75.20;;;;;;5017089;28;20195;-77
2023/03/02 06:56:09;;;;;;;24.07;13.73;;;8.00;75.00;;;;;;5023226;28;20202;-77
2023/03/02 06:58:37;;;;;;;22.47;10.63;;;8.10;75.30;;;;;;5029491;28;20222;-77
2023/03/02 07:01:07;;;;;;;22.80;12.27;;;8.10;75.30;;;;;;5022429;28;20191;-78
2023/03/02 07:03:36;;;;;;;21.30;12.27;;;8.20;75.20;;;;;;5023903;28;20250;-77
2023/03/02 07:06:06;;;;;;;21.67;11.07;;;8.20;75.00;;;;;;5026132;28;20191;-75
2023/03/02 07:08:35;;;;;;;23.47;11.33;;;8.10;74.70;;;;;;5027409;28;20188;-77
2023/03/02 07:11:06;;;;;;;24.10;13.30;;;8.20;75.00;;;;;;5020916;28;20249;-77
2023/03/02 07:13:36;;;;;;;19.57;11.83;;;8.20;75.20;;;;;;5024944;28;20200;-76
2023/03/02 07:16:10;;;;;;;19.43;9.90;;;8.20;75.00;;;;;;5030397;28;20208;-77
2023/03/02 07:18:38;;;;;;;23.53;11.33;;;8.30;74.90;;;;;;5030351;28;20250;-75
2023/03/02 07:21:08;;;;;;;20.23;10.60;;;8.30;74.90;;;;;;5033458;28;20242;-75
2023/03/02 07:23:36;;;;;;;21.17;12.47;;;8.30;75.00;;;;;;5032144;28;20196;-76
2023/03/02 07:26:07;;;;;;;26.43;13.37;;;8.40;75.30;;;;;;5032989;28;20602;-76
2023/03/02 07:28:38;;;;;;;20.17;11.67;;;8.40;75.40;;;;;;5024076;28;20191;-75
2023/03/02 07:31:07;;;;;;;22.23;11.47;;;8.40;75.50;;;;;;5028365;28;20188;-76
2023/03/02 07:33:36;;;;;;;19.90;9.80;;;8.50;76.30;;;;;;5024886;28;20203;-76
2023/03/02 07:36:05;;;;;;;20.93;9.77;;;8.60;75.50;;;;;;5031235;28;20196;-76
2023/03/02 07:38:36;;;;;;;20.07;9.50;;;8.60;75.40;;;;;;5026354;28;20642;-76
2023/03/02 07:41:08;;;;;;;21.70;10.50;;;8.60;75.10;;;;;;5025894;28;20607;-75
2023/03/02 07:43:37;;;;;;;19.67;10.17;;;8.70;75.10;;;;;;5033287;28;20188;-76
2023/03/02 07:46:05;;;;;;;19.40;9.90;;;8.70;75.10;;;;;;5026917;28;20226;-76
2023/03/02 07:48:34;;;;;;;23.43;10.80;;;8.70;75.00;;;;;;5024981;28;20230;-77
2023/03/02 07:51:04;;;;;;;20.00;9.70;;;8.80;75.20;;;;;;5022574;28;20253;-76
2023/03/02 07:53:33;;;;;;;20.40;10.77;;;8.80;75.00;;;;;;5031311;28;20203;-76
2023/03/02 07:56:06;;;;;;;21.13;9.97;;;8.90;75.10;;;;;;5031073;28;20253;-75
2023/03/02 07:58:35;;;;;;;18.10;9.80;;;8.90;75.40;;;;;;5030081;28;20210;-76
2023/03/02 08:01:03;;;;;;;17.90;9.43;;;8.90;73.90;;;;;;5022312;28;20215;-78
2023/03/02 08:03:32;;;;;;;18.33;10.00;;;9.00;74.20;;;;;;5031970;28;20656;-76
2023/03/02 08:06:05;;;;;;;20.87;10.80;;;9.00;73.90;;;;;;5031411;28;20192;-75
2023/03/02 08:08:34;;;;;;;17.93;9.30;;;9.00;74.00;;;;;;5032878;28;20187;-75
2023/03/02 08:11:07;;;;;;;20.93;10.17;;;9.10;73.70;;;;;;5021715;28;20235;-76
2023/03/02 08:13:36;;;;;;;17.90;9.87;;;9.00;73.10;;;;;;5023705;28;20975;-77
2023/03/02 08:16:07;;;;;;;20.47;10.53;;;9.10;73.00;;;;;;5019396;28;20196;-76
2023/03/02 08:18:36;;;;;;;20.53;10.00;;;9.10;73.00;;;;;;5028438;28;20622;-77
2023/03/02 08:21:05;;;;;;;19.52;11.30;;;9.10;72.70;;;;;;5022573;28;20443;-76
2023/03/02 08:23:33;;;;;;;21.83;10.63;;;9.20;73.10;;;;;;5024499;28;20199;-76
2023/03/02 08:26:01;;;;;;;21.27;10.40;;;9.20;73.00;;;;;;5020963;28;20615;-76
2023/03/02 08:28:31;;;;;;;19.90;10.50;;;9.30;73.10;;;;;;5017182;28;20196;-76
2023/03/02 08:31:01;;;;;;;20.97;10.97;;;9.30;72.70;;;;;;5031893;28;20208;-77
2023/03/02 08:33:30;;;;;;;17.53;9.97;;;9.40;72.80;;;;;;5024784;28;20203;-76
2023/03/02 08:36:00;;;;;;;20.77;9.63;;;9.40;73.00;;;;;;5022929;28;20196;-75
2023/03/02 08:38:29;;;;;;;23.30;10.27;;;9.50;72.80;;;;;;5026243;28;20195;-75
2023/03/02 08:40:58;;;;;;;21.20;10.07;;;9.50;72.70;;;;;;5030889;28;20547;-77
2023/03/02 08:43:27;;;;;;;20.47;10.00;;;9.60;72.70;;;;;;5025052;28;20204;-75
2023/03/02 08:46:06;;;;;;;18.70;9.33;;;9.70;72.50;;;;;;5020710;28;20885;-77
2023/03/02 08:48:35;;;;;;;20.47;10.00;;;9.70;72.10;;;;;;5027703;28;20199;-76
2023/03/02 08:51:06;;;;;;;19.17;9.63;;;9.80;71.80;;;;;;5027746;28;20200;-76
2023/03/02 08:53:36;;;;;;;18.70;9.83;;;9.80;71.60;;;;;;5021295;28;20242;-77
2023/03/02 08:56:06;;;;;;;18.80;9.50;;;9.90;71.50;;;;;;5031719;28;20192;-75
2023/03/02 08:58:34;;;;;;;18.47;9.53;;;9.90;70.90;;;;;;5026792;28;20267;-76
2023/03/02 09:01:04;;;;;;;21.10;10.50;;;9.90;70.70;;;;;;5028009;28;20202;-76
2023/03/02 09:03:32;;;;;;;17.23;9.93;;;9.90;71.20;;;;;;5030454;28;20200;-74
2023/03/02 09:06:01;;;;;;;22.30;10.47;;;9.90;70.60;;;;;;5027239;28;20195;-74
2023/03/02 09:08:29;;;;;;;21.50;10.97;;;10.00;71.00;;;;;;5030560;28;20212;-75
2023/03/02 09:10:57;;;;;;;20.40;10.70;;;10.10;70.80;;;;;;5030096;28;20564;-75
2023/03/02 09:13:26;;;;;;;22.67;11.27;;;10.10;70.20;;;;;;5028358;28;20644;-75
2023/03/02 09:15:54;;;;;;;23.30;11.80;;;10.10;69.60;;;;;;5026257;28;20196;-75
2023/03/02 09:18:24;;;;;;;23.20;11.47;;;10.20;69.10;;;;;;5029286;28;20258;-76
2023/03/02 09:20:53;;;;;;;21.77;10.90;;;10.20;69.20;;;;;;5028829;28;20230;-76
2023/03/02 09:23:21;;;;;;;18.87;10.37;;;10.30;68.90;;;;;;5030223;28;20222;-76
2023/03/02 09:25:50;;;;;;;21.63;10.17;;;10.30;68.70;;;;;;5024052;28;20212;-76
2023/03/02 09:28:20;;;;;;;19.33;10.37;;;10.40;68.70;;;;;;5027596;28;20607;-76
2023/03/02 09:30:50;;;;;;;22.73;10.47;;;10.40;68.40;;;;;;5030429;28;20196;-76
2023/03/02 09:33:18;;;;;;;19.33;10.23;;;10.40;68.20;;;;;;5025750;28;20204;-76
2023/03/02 09:35:49;;;;;;;27.33;10.40;;;10.40;67.70;;;;;;5027413;28;20207;-75
2023/03/02 09:38:18;;;;;;;17.40;9.23;;;10.40;67.90;;;;;;5033542;28;20274;-74
2023/03/02 09:41:12;;;;;;;21.20;11.10;;;10.40;68.10;;;;;;5028406;28;20223;-76
2023/03/02 09:43:49;;;;;;;19.20;10.13;;;10.40;67.90;;;;;;5027083;28;20568;-75
2023/03/02 09:46:22;;;;;;;20.37;10.30;;;10.40;67.90;;;;;;5024692;28;20607;-76
2023/03/02 09:49:06;;;;;;;22.73;10.57;;;10.50;68.10;;;;;;5030559;28;20203;-76
2023/03/02 09:51:43;;;;;;;21.57;10.83;;;10.50;68.00;;;;;;5032061;28;20750;-74
2023/03/02 09:54:14;;;;;;;21.77;9.60;;;10.60;68.10;;;;;;5029512;28;20226;-75
2023/03/02 09:56:46;;;;;;;23.57;11.00;;;10.50;67.70;;;;;;5029906;28;20200;-76
2023/03/02 09:59:24;;;;;;;22.23;11.03;;;10.60;67.50;;;;;;5027726;28;20200;-76
2023/03/02 10:02:00;;;;;;;23.85;11.35;;;10.60;67.50;;;;;;5030512;28;20508;-76
2023/03/02 10:04:31;;;;;;;21.67;11.23;;;10.60;68.00;;;;;;5031662;28;20576;-76
2023/03/02 10:07:12;;;;;;;21.10;11.23;;;10.60;67.50;;;;;;5026259;28;20203;-75
2023/03/02 10:09:41;;;;;;;20.27;11.10;;;10.70;68.00;;;;;;5033465;28;20189;-76
2023/03/02 10:12:29;;;;;;;20.97;10.70;;;10.70;67.60;;;;;;5024813;28;20304;-75
2023/03/02 10:15:04;;;;;;;18.67;10.17;;;10.70;67.30;;;;;;5028845;28;20200;-76
2023/03/02 10:17:43;;;;;;;21.77;10.53;;;10.80;67.50;;;;;;5031144;28;20202;-75
2023/03/02 10:20:18;;;;;;;20.33;11.00;;;10.80;67.60;;;;;;5031019;28;20258;-78
2023/03/02 10:22:53;;;;;;;22.13;10.33;;;10.80;67.60;;;;;;5024995;28;20199;-75
2023/03/02 10:25:30;;;;;;;23.37;11.03;;;10.80;67.30;;;;;;5024768;28;20261;-76
2023/03/02 10:28:08;;;;;;;18.83;10.13;;;10.80;67.50;;;;;;5027132;28;20678;-75
2023/03/02 10:30:38;;;;;;;21.90;11.10;;;10.90;67.80;;;;;;5024059;28;20246;-75
2023/03/02 10:33:15;;;;;;;24.00;10.70;;;10.90;67.60;;;;;;5026798;28;20559;-76
2023/03/02 10:35:47;;;;;;;24.83;12.33;;;10.90;67.50;;;;;;5018906;28;20245;-76
2023/03/02 10:38:18;;;;;;;21.90;10.57;;;10.90;67.10;;;;;;5023320;28;20207;-76
2023/03/02 10:40:48;;;;;;;22.67;11.13;;;11.00;66.90;;;;;;5022677;28;20210;-75
2023/03/02 10:43:20;;;;;;;21.73;10.47;;;11.00;67.20;;;;;;5030772;28;20257;-74
2023/03/02 10:45:59;;;;;;;22.37;10.63;;;10.90;66.50;;;;;;5031923;28;20187;-76
2023/03/02 10:48:28;;;;;;;21.23;10.47;;;11.00;66.70;;;;;;5030466;28;20206;-75
2023/03/02 10:50:59;;;;;;;23.07;10.23;;;11.00;66.60;;;;;;5030978;28;20694;-77
2023/03/02 10:53:29;;;;;;;21.53;10.87;;;11.00;66.80;;;;;;5033002;28;20286;-76
2023/03/02 10:55:57;;;;;;;19.47;10.60;;;11.00;66.60;;;;;;5030127;28;20212;-76
2023/03/02 10:58:31;;;;;;;17.00;9.77;;;11.10;66.40;;;;;;4976707;28;20204;-75
2023/03/02 11:01:02;;;;;;;18.83;9.97;;;11.00;66.40;;;;;;5029927;28;20282;-76
2023/03/02 11:03:31;;;;;;;23.33;11.47;;;11.00;66.60;;;;;;5027552;28;20659;-77
2023/03/02 11:06:17;;;;;;;21.00;10.60;;;11.00;66.50;;;;;;5027993;28;20253;-75
2023/03/02 11:08:57;;;;;;;17.63;9.53;;;11.00;66.30;;;;;;5029948;28;20287;-75
2023/03/02 11:11:25;;;;;;;20.10;8.90;;;11.00;66.00;;;;;;5010402;28;20314;-77
2023/03/02 11:13:55;;;;;;;19.43;10.23;;;11.00;65.80;;;;;;5014449;28;20199;-77
2023/03/02 11:16:28;;;;;;;20.27;9.97;;;11.00;66.60;;;;;;5013334;28;20683;-76
2023/03/02 11:19:00;;;;;;;18.17;10.33;;;11.10;66.80;;;;;;5013555;28;20251;-76
2023/03/02 11:21:35;;;;;;;18.77;10.07;;;11.10;66.50;;;;;;5003628;28;20236;-77
2023/03/02 11:24:10;;;;;;;18.93;10.40;;;11.00;64.70;;;;;;5006045;28;20579;-76
2023/03/02 11:26:44;;;;;;;18.07;9.57;;;11.00;66.10;;;;;;4999763;28;20200;-78
2023/03/02 11:29:23;;;;;;;17.27;9.40;;;11.10;65.70;;;;;;5010509;28;20207;-77
2023/03/02 11:31:55;;;;;;;17.93;9.50;;;11.10;65.90;;;;;;5011489;28;20188;-77
2023/03/02 11:34:32;;;;;;;18.37;8.80;;;11.10;66.10;;;;;;5009899;28;20200;-79
2023/03/02 11:37:12;;;;;;;17.33;9.00;;;11.20;66.30;;;;;;5010757;28;20200;-77
2023/03/02 11:39:59;;;;;;;14.37;8.80;;;11.20;65.90;;;;;;5006881;28;20200;-78
2023/03/02 11:42:30;;;;;;;17.40;9.00;;;11.30;66.20;;;;;;5002005;28;20192;-78
2023/03/02 11:45:03;;;;;;;19.30;9.43;;;11.30;65.60;;;;;;5009405;28;20764;-77
2023/03/02 11:47:33;;;;;;;19.30;10.10;;;11.30;65.20;;;;;;5009673;28;20200;-76
2023/03/02 11:50:05;;;;;;;18.60;9.30;;;11.20;65.30;;;;;;5012149;28;20551;-77
2023/03/02 11:52:38;;;;;;;20.33;10.03;;;11.30;65.50;;;;;;5007066;28;20192;-77
2023/03/02 11:55:17;;;;;;;20.73;10.10;;;11.30;65.60;;;;;;5012160;28;20203;-76
2023/03/02 11:57:49;;;;;;;17.13;9.13;;;11.30;65.60;;;;;;5013083;28;20203;-77
2023/03/02 12:00:30;;;;;;;18.63;9.80;;;11.30;65.70;;;;;;5002831;28;20231;-78
2023/03/02 12:03:03;;;;;;;34.87;13.43;;;11.40;65.90;;;;;;5007642;28;20731;-76
2023/03/02 12:05:35;;;;;;;25.70;12.60;;;11.30;65.80;;;;;;5000244;28;20196;-77
2023/03/02 12:08:05;;;;;;;18.20;10.20;;;11.40;66.00;;;;;;5008384;28;22126;-77
2023/03/02 12:10:39;;;;;;;22.47;11.30;;;11.40;65.40;;;;;;5008097;28;20637;-78
2023/03/02 12:13:15;;;;;;;17.80;9.87;;;11.40;65.50;;;;;;5015406;28;20204;-79
2023/03/02 12:15:45;;;;;;;19.73;9.40;;;11.40;65.60;;;;;;5012942;28;20228;-78
2023/03/02 12:18:45;;;;;;;24.03;10.43;;;11.40;65.60;;;;;;5009332;28;20292;-78
2023/03/02 12:21:16;;;;;;;17.80;9.47;;;11.50;65.80;;;;;;5007117;28;20240;-78
2023/03/02 12:23:58;;;;;;;18.73;9.63;;;11.50;65.90;;;;;;5013159;28;21519;-78
2023/03/02 12:26:32;;;;;;;19.03;9.60;;;11.50;65.70;;;;;;5001003;28;20197;-77
2023/03/02 12:29:25;;;;;;;17.67;9.63;;;11.50;65.90;;;;;;5002264;28;20235;-80
2023/03/02 12:31:56;;;;;;;21.93;10.37;;;11.60;66.10;;;;;;5006926;28;20200;-77
2023/03/02 12:34:35;;;;;;;16.50;9.23;;;11.60;65.90;;;;;;5008859;28;20201;-77
2023/03/02 12:37:13;;;;;;;16.30;9.33;;;11.60;66.10;;;;;;5007463;28;20196;-76
2023/03/02 12:40:07;;;;;;;20.57;10.60;;;11.60;65.20;;;;;;4946941;28;20674;-75
2023/03/02 12:42:49;;;;;;;17.17;10.13;;;11.60;65.20;;;;;;4948224;28;20218;-75
2023/03/02 12:45:30;;;;;;;19.60;10.43;;;11.70;65.10;;;;;;4953859;29;20202;-76
2023/03/02 12:48:03;;;;;;;22.57;10.87;;;11.60;64.90;;;;;;4952188;28;20514;-76
2023/03/02 12:50:37;;;;;;;24.10;11.80;;;11.70;64.50;;;;;;4950434;28;20593;-77
2023/03/02 12:53:14;;;;;;;16.40;8.83;;;11.70;64.80;;;;;;4952751;28;20198;-77
2023/03/02 12:55:46;;;;;;;19.70;9.03;;;11.60;64.60;;;;;;4953931;28;20205;-78
2023/03/02 12:58:19;;;;;;;18.13;9.73;;;11.60;64.60;;;;;;4956750;28;20631;-77